ANS900 SAZN-SAZM
Flight info
| Callsign | ANS900 |
|---|---|
| Flight time | 1h 17m |
| Altitude | 37000 |
| Route | ROPON UW32 SIGUL DCT SIRAN |
| Aircraft | B738/M-SABDE1E2FGHIM1RWXYZ/S |
Departure
| Time | 2026-04-21 22:44 |
|---|---|
| Airport | Presidente Perón International Airport (SAZN) |
Arrival
| Time | 2026-04-22 00:01 |
|---|---|
| Airport | Ástor Piazzola International Airport (SAZM) |
| Time | Latitude | Longitude | Altitude | Speed | Heading |
|---|---|---|---|---|---|
| 2026-04-21 22:20 | -38.95154 | -68.14113 | 903 ft | 0 kts | 180° |
| 2026-04-21 22:35 | -38.95143 | -68.14112 | 909 ft | 4 kts | 181° |
| 2026-04-21 22:35 | -38.95116 | -68.14112 | 904 ft | 4 kts | 173° |
| 2026-04-21 22:35 | -38.95096 | -68.14121 | 903 ft | 4 kts | 109° |
| 2026-04-21 22:36 | -38.95094 | -68.14162 | 906 ft | 0 kts | 91° |
| 2026-04-21 22:39 | -38.95094 | -68.14160 | 903 ft | 1 kts | 91° |
| 2026-04-21 22:40 | -38.95095 | -68.14139 | 903 ft | 4 kts | 91° |
| 2026-04-21 22:40 | -38.95095 | -68.14095 | 903 ft | 6 kts | 90° |
| 2026-04-21 22:40 | -38.95095 | -68.14027 | 903 ft | 9 kts | 90° |
| 2026-04-21 22:40 | -38.95062 | -68.13973 | 903 ft | 9 kts | 357° |
| 2026-04-21 22:41 | -38.95015 | -68.14020 | 903 ft | 9 kts | 314° |
| 2026-04-21 22:41 | -38.94974 | -68.14075 | 905 ft | 8 kts | 314° |
| 2026-04-21 22:41 | -38.94929 | -68.14118 | 906 ft | 8 kts | 345° |
| 2026-04-21 22:41 | -38.94905 | -68.14150 | 905 ft | 5 kts | 279° |
| 2026-04-21 22:42 | -38.94904 | -68.14168 | 905 ft | 0 kts | 271° |
| 2026-04-21 22:43 | -38.94902 | -68.14319 | 904 ft | 51 kts | 270° |
| 2026-04-21 22:43 | -38.94900 | -68.15111 | 901 ft | 124 kts | 270° |
| 2026-04-21 22:44 | -38.94899 | -68.16469 | 1024 ft | 171 kts | 269° |
| 2026-04-21 22:44 | -38.94934 | -68.17990 | 1817 ft | 169 kts | 269° |
| 2026-04-21 22:44 | -38.94985 | -68.19502 | 2642 ft | 173 kts | 269° |
| 2026-04-21 22:44 | -38.95217 | -68.21137 | 3027 ft | 206 kts | 243° |
| 2026-04-21 22:45 | -38.96311 | -68.22383 | 3338 ft | 230 kts | 200° |
| 2026-04-21 22:45 | -38.97919 | -68.22388 | 3865 ft | 241 kts | 160° |
| 2026-04-21 22:45 | -38.99334 | -68.21093 | 4152 ft | 269 kts | 127° |
| 2026-04-21 22:45 | -39.00086 | -68.18866 | 4908 ft | 272 kts | 98° |
| 2026-04-21 22:46 | -39.00125 | -68.16462 | 5935 ft | 272 kts | 83° |
| 2026-04-21 22:46 | -38.99873 | -68.14014 | 6708 ft | 280 kts | 82° |
| 2026-04-21 22:46 | -38.99619 | -68.11527 | 7631 ft | 281 kts | 82° |
| 2026-04-21 22:46 | -38.99375 | -68.09005 | 8461 ft | 287 kts | 82° |
| 2026-04-21 22:47 | -38.99133 | -68.06439 | 9278 ft | 292 kts | 82° |
| 2026-04-21 22:47 | -38.98890 | -68.03819 | 10089 ft | 298 kts | 82° |
| 2026-04-21 22:47 | -38.98639 | -68.01102 | 10531 ft | 317 kts | 83° |
| 2026-04-21 22:47 | -38.98370 | -67.98177 | 10784 ft | 340 kts | 83° |
| 2026-04-21 22:48 | -38.98089 | -67.95114 | 11392 ft | 349 kts | 83° |
| 2026-04-21 22:48 | -38.97803 | -67.91988 | 12167 ft | 354 kts | 83° |
| 2026-04-21 22:48 | -38.97514 | -67.88835 | 12960 ft | 358 kts | 83° |
| 2026-04-21 22:48 | -38.97220 | -67.85636 | 13718 ft | 363 kts | 83° |
| 2026-04-21 22:49 | -38.96922 | -67.82398 | 14392 ft | 368 kts | 82° |
| 2026-04-21 22:49 | -38.96617 | -67.79102 | 15082 ft | 372 kts | 82° |
| 2026-04-21 22:49 | -38.96309 | -67.75788 | 15761 ft | 376 kts | 82° |
| 2026-04-21 22:49 | -38.95997 | -67.72428 | 16437 ft | 381 kts | 82° |
| 2026-04-21 22:50 | -38.95683 | -67.69072 | 17080 ft | 386 kts | 82° |
| 2026-04-21 22:50 | -38.95361 | -67.65636 | 17717 ft | 391 kts | 81° |
| 2026-04-21 22:50 | -38.95033 | -67.62143 | 18354 ft | 396 kts | 81° |
| 2026-04-21 22:50 | -38.94702 | -67.58617 | 18956 ft | 398 kts | 81° |
| 2026-04-21 22:51 | -38.94368 | -67.55086 | 19677 ft | 397 kts | 81° |
| 2026-04-21 22:51 | -38.94038 | -67.51566 | 20390 ft | 397 kts | 81° |
| 2026-04-21 22:51 | -38.93864 | -67.48014 | 21041 ft | 400 kts | 85° |
| 2026-04-21 22:51 | -38.93788 | -67.44428 | 21680 ft | 401 kts | 86° |
| 2026-04-21 22:52 | -38.93740 | -67.40834 | 22301 ft | 403 kts | 86° |
| 2026-04-21 22:52 | -38.93695 | -67.37234 | 22935 ft | 404 kts | 86° |
| 2026-04-21 22:52 | -38.93646 | -67.33614 | 23578 ft | 405 kts | 85° |
| 2026-04-21 22:52 | -38.93588 | -67.29994 | 24070 ft | 406 kts | 85° |
| 2026-04-21 22:53 | -38.93523 | -67.26343 | 24450 ft | 411 kts | 85° |
| 2026-04-21 22:53 | -38.93453 | -67.22697 | 24834 ft | 415 kts | 85° |
| 2026-04-21 22:53 | -38.93378 | -67.18975 | 25256 ft | 418 kts | 85° |
| 2026-04-21 22:53 | -38.93300 | -67.15232 | 25680 ft | 421 kts | 85° |
| 2026-04-21 22:54 | -38.93221 | -67.11462 | 26075 ft | 424 kts | 85° |
| 2026-04-21 22:54 | -38.93138 | -67.07611 | 26459 ft | 428 kts | 85° |
| 2026-04-21 22:54 | -38.93056 | -67.03823 | 26833 ft | 431 kts | 85° |
| 2026-04-21 22:54 | -38.92971 | -66.99964 | 27206 ft | 434 kts | 85° |
| 2026-04-21 22:55 | -38.92884 | -66.96070 | 27566 ft | 437 kts | 85° |
| 2026-04-21 22:55 | -38.92795 | -66.92145 | 27925 ft | 441 kts | 85° |
| 2026-04-21 22:55 | -38.92704 | -66.88196 | 28275 ft | 444 kts | 85° |
| 2026-04-21 22:55 | -38.92611 | -66.84222 | 28621 ft | 447 kts | 85° |
| 2026-04-21 22:56 | -38.92517 | -66.80225 | 28964 ft | 450 kts | 85° |
| 2026-04-21 22:56 | -38.92420 | -66.76194 | 29293 ft | 453 kts | 85° |
| 2026-04-21 22:56 | -38.92355 | -66.73511 | 29509 ft | 454 kts | 85° |
| 2026-04-21 22:56 | -38.92255 | -66.69443 | 29836 ft | 457 kts | 85° |
| 2026-04-21 22:57 | -38.92153 | -66.65354 | 30147 ft | 460 kts | 85° |
| 2026-04-21 22:57 | -38.92049 | -66.61240 | 30420 ft | 462 kts | 85° |
| 2026-04-21 22:57 | -38.91909 | -66.55773 | 30802 ft | 463 kts | 85° |
| 2026-04-21 22:57 | -38.91836 | -66.52972 | 31004 ft | 464 kts | 85° |
| 2026-04-21 22:58 | -38.91727 | -66.48825 | 31283 ft | 465 kts | 85° |
| 2026-04-21 22:58 | -38.91580 | -66.43316 | 31682 ft | 466 kts | 85° |
| 2026-04-21 22:58 | -38.91504 | -66.40511 | 31933 ft | 465 kts | 85° |
| 2026-04-21 22:58 | -38.91393 | -66.36425 | 32353 ft | 462 kts | 85° |
| 2026-04-21 22:59 | -38.91278 | -66.32259 | 32769 ft | 460 kts | 85° |
| 2026-04-21 22:59 | -38.91164 | -66.28211 | 33108 ft | 459 kts | 85° |
| 2026-04-21 22:59 | -38.91047 | -66.24119 | 33432 ft | 459 kts | 85° |
| 2026-04-21 22:59 | -38.90929 | -66.20022 | 33802 ft | 457 kts | 85° |
| 2026-04-21 23:00 | -38.90811 | -66.15950 | 34163 ft | 456 kts | 85° |
| 2026-04-21 23:00 | -38.90691 | -66.11882 | 34366 ft | 457 kts | 85° |
| 2026-04-21 23:00 | -38.90566 | -66.07786 | 34474 ft | 460 kts | 85° |
| 2026-04-21 23:00 | -38.90437 | -66.03671 | 34668 ft | 462 kts | 85° |
| 2026-04-21 23:01 | -38.90306 | -65.99544 | 34875 ft | 462 kts | 85° |
| 2026-04-21 23:01 | -38.90174 | -65.95419 | 35050 ft | 464 kts | 84° |
| 2026-04-21 23:01 | -38.90040 | -65.91259 | 35187 ft | 467 kts | 84° |
| 2026-04-21 23:01 | -38.89904 | -65.87092 | 35354 ft | 469 kts | 84° |
| 2026-04-21 23:02 | -38.89767 | -65.82919 | 35482 ft | 471 kts | 84° |
| 2026-04-21 23:02 | -38.89626 | -65.78697 | 35657 ft | 472 kts | 84° |
| 2026-04-21 23:02 | -38.89485 | -65.74474 | 35832 ft | 474 kts | 84° |
| 2026-04-21 23:02 | -38.89342 | -65.70244 | 35997 ft | 475 kts | 84° |
| 2026-04-21 23:03 | -38.89196 | -65.66002 | 36147 ft | 477 kts | 84° |
| 2026-04-21 23:03 | -38.89049 | -65.61738 | 36292 ft | 479 kts | 84° |
| 2026-04-21 23:03 | -38.88899 | -65.57463 | 36449 ft | 480 kts | 84° |
| 2026-04-21 23:03 | -38.88750 | -65.53235 | 36610 ft | 481 kts | 84° |
| 2026-04-21 23:04 | -38.88596 | -65.48937 | 36774 ft | 482 kts | 84° |
| 2026-04-21 23:04 | -38.88440 | -65.44629 | 36906 ft | 484 kts | 84° |
| 2026-04-21 23:04 | -38.88283 | -65.40308 | 37064 ft | 485 kts | 84° |
| 2026-04-21 23:04 | -38.88123 | -65.35978 | 37209 ft | 487 kts | 84° |
| 2026-04-21 23:05 | -38.87961 | -65.31621 | 37353 ft | 488 kts | 83° |
| 2026-04-21 23:05 | -38.87797 | -65.27265 | 37506 ft | 489 kts | 83° |
| 2026-04-21 23:05 | -38.87632 | -65.22899 | 37670 ft | 490 kts | 83° |
| 2026-04-21 23:05 | -38.87465 | -65.18532 | 37831 ft | 491 kts | 83° |
| 2026-04-21 23:06 | -38.87295 | -65.14155 | 37969 ft | 492 kts | 83° |
| 2026-04-21 23:06 | -38.87124 | -65.09770 | 38109 ft | 493 kts | 83° |
| 2026-04-21 23:06 | -38.86950 | -65.05368 | 38259 ft | 494 kts | 83° |
| 2026-04-21 23:06 | -38.86775 | -65.00971 | 38415 ft | 494 kts | 83° |
| 2026-04-21 23:07 | -38.86598 | -64.96564 | 38563 ft | 495 kts | 83° |
| 2026-04-21 23:07 | -38.86419 | -64.92145 | 38686 ft | 496 kts | 83° |
| 2026-04-21 23:07 | -38.86238 | -64.87728 | 38813 ft | 496 kts | 83° |
| 2026-04-21 23:07 | -38.86055 | -64.83297 | 38958 ft | 496 kts | 83° |
| 2026-04-21 23:08 | -38.85871 | -64.78887 | 39066 ft | 496 kts | 83° |
| 2026-04-21 23:08 | -38.85685 | -64.74457 | 39067 ft | 498 kts | 83° |
| 2026-04-21 23:08 | -38.85309 | -64.65641 | 39093 ft | 498 kts | 83° |
| 2026-04-21 23:09 | -38.84926 | -64.56778 | 39086 ft | 497 kts | 83° |
| 2026-04-21 23:09 | -38.84537 | -64.47933 | 39092 ft | 496 kts | 82° |
| 2026-04-21 23:10 | -38.84143 | -64.39094 | 39101 ft | 496 kts | 82° |
| 2026-04-21 23:10 | -38.83743 | -64.30261 | 39097 ft | 495 kts | 82° |
| 2026-04-21 23:11 | -38.83337 | -64.21449 | 39102 ft | 495 kts | 82° |
| 2026-04-21 23:11 | -38.82923 | -64.12629 | 39107 ft | 495 kts | 82° |
| 2026-04-21 23:12 | -38.82504 | -64.03808 | 39101 ft | 496 kts | 82° |
| 2026-04-21 23:12 | -38.82077 | -63.94980 | 39107 ft | 496 kts | 82° |
| 2026-04-21 23:13 | -38.81644 | -63.86154 | 39109 ft | 496 kts | 82° |
| 2026-04-21 23:13 | -38.81206 | -63.77371 | 39110 ft | 497 kts | 82° |
| 2026-04-21 23:14 | -38.80758 | -63.68521 | 39112 ft | 497 kts | 82° |
| 2026-04-21 23:14 | -38.80304 | -63.59669 | 39113 ft | 498 kts | 82° |
| 2026-04-21 23:15 | -38.79842 | -63.50803 | 39110 ft | 498 kts | 82° |
| 2026-04-21 23:15 | -38.79373 | -63.41919 | 39112 ft | 499 kts | 82° |
| 2026-04-21 23:16 | -38.78897 | -63.33041 | 39113 ft | 499 kts | 82° |
| 2026-04-21 23:16 | -38.78418 | -63.24223 | 39114 ft | 499 kts | 82° |
| 2026-04-21 23:17 | -38.77930 | -63.15346 | 39115 ft | 499 kts | 81° |
| 2026-04-21 23:17 | -38.77435 | -63.06460 | 39123 ft | 500 kts | 82° |
| 2026-04-21 23:18 | -38.76933 | -62.97569 | 39111 ft | 500 kts | 81° |
| 2026-04-21 23:18 | -38.76426 | -62.88693 | 39113 ft | 499 kts | 81° |
| 2026-04-21 23:19 | -38.75911 | -62.79815 | 39109 ft | 499 kts | 81° |
| 2026-04-21 23:19 | -38.75390 | -62.70945 | 39113 ft | 499 kts | 81° |
| 2026-04-21 23:20 | -38.74890 | -62.62540 | 39116 ft | 499 kts | 81° |
| 2026-04-21 23:20 | -38.74356 | -62.53676 | 39110 ft | 499 kts | 81° |
| 2026-04-21 23:21 | -38.73819 | -62.44870 | 39116 ft | 499 kts | 81° |
| 2026-04-21 23:21 | -38.73272 | -62.36005 | 39122 ft | 499 kts | 81° |
| 2026-04-21 23:22 | -38.72718 | -62.27148 | 39129 ft | 499 kts | 81° |
| 2026-04-21 23:22 | -38.72159 | -62.18289 | 39130 ft | 499 kts | 81° |
| 2026-04-21 23:23 | -38.71221 | -62.09573 | 39134 ft | 495 kts | 74° |
| 2026-04-21 23:23 | -38.69829 | -62.00879 | 39125 ft | 496 kts | 73° |
| 2026-04-21 23:24 | -38.68431 | -61.92290 | 39092 ft | 497 kts | 78° |
| 2026-04-21 23:24 | -38.67064 | -61.83608 | 39108 ft | 497 kts | 77° |
| 2026-04-21 23:25 | -38.65726 | -61.74909 | 39111 ft | 498 kts | 77° |
| 2026-04-21 23:25 | -38.64381 | -61.66204 | 39108 ft | 499 kts | 77° |
| 2026-04-21 23:26 | -38.63022 | -61.57488 | 39108 ft | 500 kts | 77° |
| 2026-04-21 23:26 | -38.61650 | -61.48753 | 39104 ft | 501 kts | 77° |
| 2026-04-21 23:27 | -38.60271 | -61.40015 | 39096 ft | 502 kts | 77° |
| 2026-04-21 23:27 | -38.58884 | -61.31264 | 39090 ft | 502 kts | 77° |
| 2026-04-21 23:28 | -38.57492 | -61.22529 | 39092 ft | 502 kts | 77° |
| 2026-04-21 23:28 | -38.56099 | -61.13835 | 39084 ft | 502 kts | 76° |
| 2026-04-21 23:29 | -38.54694 | -61.05094 | 39084 ft | 501 kts | 76° |
| 2026-04-21 23:29 | -38.53280 | -60.96355 | 39081 ft | 501 kts | 76° |
| 2026-04-21 23:30 | -38.51862 | -60.87640 | 39078 ft | 501 kts | 76° |
| 2026-04-21 23:30 | -38.50439 | -60.78930 | 39073 ft | 501 kts | 76° |
| 2026-04-21 23:31 | -38.49724 | -60.74569 | 38857 ft | 505 kts | 76° |
| 2026-04-21 23:31 | -38.48996 | -60.70146 | 38267 ft | 509 kts | 76° |
| 2026-04-21 23:31 | -38.48279 | -60.65790 | 37656 ft | 507 kts | 76° |
| 2026-04-21 23:31 | -38.47553 | -60.61391 | 37068 ft | 506 kts | 77° |
| 2026-04-21 23:32 | -38.46828 | -60.57007 | 36479 ft | 505 kts | 77° |
| 2026-04-21 23:32 | -38.46101 | -60.52622 | 35870 ft | 504 kts | 77° |
| 2026-04-21 23:32 | -38.45372 | -60.48237 | 35312 ft | 503 kts | 77° |
| 2026-04-21 23:32 | -38.44618 | -60.43880 | 34825 ft | 500 kts | 72° |
| 2026-04-21 23:33 | -38.43311 | -60.39818 | 34358 ft | 493 kts | 59° |
| 2026-04-21 23:33 | -38.41595 | -60.36060 | 33870 ft | 489 kts | 56° |
| 2026-04-21 23:33 | -38.39785 | -60.32402 | 33381 ft | 485 kts | 54° |
| 2026-04-21 23:33 | -38.37960 | -60.28814 | 32928 ft | 480 kts | 54° |
| 2026-04-21 23:34 | -38.36138 | -60.25261 | 32514 ft | 476 kts | 54° |
| 2026-04-21 23:34 | -38.34330 | -60.21755 | 32091 ft | 471 kts | 54° |
| 2026-04-21 23:34 | -38.32539 | -60.18291 | 31704 ft | 466 kts | 54° |
| 2026-04-21 23:34 | -38.30759 | -60.14858 | 31306 ft | 462 kts | 54° |
| 2026-04-21 23:35 | -38.28998 | -60.11465 | 30937 ft | 457 kts | 54° |
| 2026-04-21 23:35 | -38.27246 | -60.08095 | 30581 ft | 453 kts | 54° |
| 2026-04-21 23:35 | -38.25516 | -60.04765 | 30236 ft | 448 kts | 54° |
| 2026-04-21 23:35 | -38.23807 | -60.01477 | 29863 ft | 443 kts | 54° |
| 2026-04-21 23:36 | -38.22122 | -59.98233 | 29545 ft | 436 kts | 54° |
| 2026-04-21 23:36 | -38.20464 | -59.95040 | 29261 ft | 429 kts | 53° |
| 2026-04-21 23:36 | -38.18858 | -59.91948 | 29018 ft | 420 kts | 53° |
| 2026-04-21 23:36 | -38.17327 | -59.88812 | 28530 ft | 420 kts | 61° |
| 2026-04-21 23:37 | -38.16296 | -59.85320 | 27913 ft | 425 kts | 75° |
| 2026-04-21 23:37 | -38.15844 | -59.81625 | 27532 ft | 421 kts | 85° |
| 2026-04-21 23:37 | -38.15641 | -59.77945 | 27221 ft | 414 kts | 85° |
| 2026-04-21 23:37 | -38.15447 | -59.74312 | 26877 ft | 409 kts | 84° |
| 2026-04-21 23:38 | -38.15249 | -59.70731 | 26520 ft | 404 kts | 84° |
| 2026-04-21 23:38 | -38.15044 | -59.67192 | 26181 ft | 399 kts | 84° |
| 2026-04-21 23:38 | -38.14834 | -59.63703 | 25846 ft | 394 kts | 84° |
| 2026-04-21 23:38 | -38.14621 | -59.60252 | 25495 ft | 389 kts | 83° |
| 2026-04-21 23:39 | -38.14406 | -59.56845 | 25168 ft | 384 kts | 83° |
| 2026-04-21 23:39 | -38.14192 | -59.53490 | 24853 ft | 379 kts | 83° |
| 2026-04-21 23:39 | -38.13978 | -59.50171 | 24534 ft | 374 kts | 83° |
| 2026-04-21 23:39 | -38.13767 | -59.46900 | 24202 ft | 370 kts | 83° |
| 2026-04-21 23:40 | -38.13556 | -59.43664 | 23883 ft | 365 kts | 83° |
| 2026-04-21 23:40 | -38.13348 | -59.40469 | 23565 ft | 361 kts | 83° |
| 2026-04-21 23:40 | -38.13141 | -59.37313 | 23147 ft | 358 kts | 83° |
| 2026-04-21 23:40 | -38.12699 | -59.34235 | 22617 ft | 353 kts | 67° |
| 2026-04-21 23:41 | -38.11447 | -59.31589 | 22140 ft | 348 kts | 45° |
| 2026-04-21 23:41 | -38.10272 | -59.30226 | 21865 ft | 345 kts | 37° |
| 2026-04-21 23:41 | -38.07703 | -59.27874 | 21334 ft | 341 kts | 33° |
| 2026-04-21 23:41 | -38.05749 | -59.26184 | 20917 ft | 339 kts | 33° |
| 2026-04-21 23:42 | -38.03802 | -59.24511 | 20507 ft | 337 kts | 33° |
| 2026-04-21 23:42 | -38.01862 | -59.22844 | 20109 ft | 335 kts | 33° |
| 2026-04-21 23:42 | -37.99936 | -59.21187 | 19719 ft | 333 kts | 33° |
| 2026-04-21 23:42 | -37.98029 | -59.19540 | 19334 ft | 331 kts | 33° |
| 2026-04-21 23:43 | -37.96130 | -59.17895 | 18994 ft | 328 kts | 33° |
| 2026-04-21 23:43 | -37.94427 | -59.16011 | 18766 ft | 324 kts | 47° |
| 2026-04-21 23:43 | -37.93100 | -59.13732 | 18554 ft | 320 kts | 58° |
| 2026-04-21 23:43 | -37.92518 | -59.12019 | 18392 ft | 320 kts | 69° |
| 2026-04-21 23:44 | -37.91931 | -59.09289 | 17885 ft | 325 kts | 72° |
| 2026-04-21 23:44 | -37.91450 | -59.06493 | 17641 ft | 325 kts | 77° |
| 2026-04-21 23:44 | -37.91136 | -59.03635 | 17379 ft | 331 kts | 79° |
| 2026-04-21 23:44 | -37.90876 | -59.00716 | 17130 ft | 335 kts | 80° |
| 2026-04-21 23:45 | -37.90618 | -58.97768 | 16861 ft | 336 kts | 80° |
| 2026-04-21 23:45 | -37.90070 | -58.91914 | 16336 ft | 333 kts | 79° |
| 2026-04-21 23:45 | -37.89779 | -58.89008 | 16084 ft | 332 kts | 79° |
| 2026-04-21 23:46 | -37.89482 | -58.86116 | 15829 ft | 331 kts | 79° |
| 2026-04-21 23:46 | -37.89179 | -58.83225 | 15576 ft | 330 kts | 79° |
| 2026-04-21 23:46 | -37.88874 | -58.80345 | 15325 ft | 329 kts | 78° |
| 2026-04-21 23:46 | -37.88572 | -58.77515 | 15084 ft | 328 kts | 78° |
| 2026-04-21 23:47 | -37.88266 | -58.74666 | 14759 ft | 325 kts | 78° |
| 2026-04-21 23:47 | -37.87962 | -58.71840 | 14409 ft | 323 kts | 78° |
| 2026-04-21 23:47 | -37.87658 | -58.69034 | 14054 ft | 321 kts | 78° |
| 2026-04-21 23:47 | -37.87355 | -58.66237 | 13687 ft | 321 kts | 78° |
| 2026-04-21 23:48 | -37.87050 | -58.63439 | 13278 ft | 320 kts | 79° |
| 2026-04-21 23:48 | -37.86747 | -58.60653 | 12894 ft | 318 kts | 79° |
| 2026-04-21 23:48 | -37.86444 | -58.57884 | 12526 ft | 317 kts | 79° |
| 2026-04-21 23:48 | -37.86142 | -58.55128 | 12149 ft | 316 kts | 79° |
| 2026-04-21 23:49 | -37.85841 | -58.52382 | 11784 ft | 314 kts | 79° |
| 2026-04-21 23:49 | -37.85540 | -58.49647 | 11421 ft | 313 kts | 79° |
| 2026-04-21 23:49 | -37.85239 | -58.46918 | 11058 ft | 312 kts | 79° |
| 2026-04-21 23:49 | -37.84939 | -58.44206 | 10700 ft | 310 kts | 79° |
| 2026-04-21 23:50 | -37.84640 | -58.41504 | 10364 ft | 309 kts | 79° |
| 2026-04-21 23:50 | -37.84347 | -58.38855 | 10199 ft | 301 kts | 79° |
| 2026-04-21 23:50 | -37.84064 | -58.36299 | 10068 ft | 292 kts | 79° |
| 2026-04-21 23:50 | -37.83785 | -58.33781 | 9866 ft | 287 kts | 79° |
| 2026-04-21 23:51 | -37.83506 | -58.31286 | 9539 ft | 286 kts | 79° |
| 2026-04-21 23:51 | -37.83228 | -58.28809 | 9237 ft | 284 kts | 79° |
| 2026-04-21 23:51 | -37.82952 | -58.26344 | 8925 ft | 282 kts | 79° |
| 2026-04-21 23:51 | -37.82676 | -58.23888 | 8625 ft | 281 kts | 79° |
| 2026-04-21 23:52 | -37.82401 | -58.21450 | 8315 ft | 279 kts | 79° |
| 2026-04-21 23:52 | -37.82128 | -58.19023 | 8009 ft | 278 kts | 79° |
| 2026-04-21 23:52 | -37.81855 | -58.16607 | 7715 ft | 277 kts | 79° |
| 2026-04-21 23:52 | -37.81582 | -58.14194 | 7404 ft | 277 kts | 79° |
| 2026-04-21 23:53 | -37.81308 | -58.11784 | 7104 ft | 276 kts | 79° |
| 2026-04-21 23:53 | -37.81036 | -58.09386 | 6784 ft | 276 kts | 79° |
| 2026-04-21 23:53 | -37.80763 | -58.06985 | 6460 ft | 276 kts | 79° |
| 2026-04-21 23:53 | -37.80489 | -58.04582 | 6123 ft | 276 kts | 79° |
| 2026-04-21 23:54 | -37.80215 | -58.02182 | 5792 ft | 276 kts | 79° |
| 2026-04-21 23:54 | -37.79943 | -57.99793 | 5485 ft | 272 kts | 78° |
| 2026-04-21 23:54 | -37.79688 | -57.97558 | 5180 ft | 264 kts | 79° |
| 2026-04-21 23:54 | -37.79435 | -57.95344 | 4967 ft | 252 kts | 79° |
| 2026-04-21 23:55 | -37.79188 | -57.93190 | 4720 ft | 243 kts | 79° |
| 2026-04-21 23:55 | -37.78949 | -57.91111 | 4445 ft | 235 kts | 78° |
| 2026-04-21 23:55 | -37.78713 | -57.89071 | 4140 ft | 232 kts | 78° |
| 2026-04-21 23:55 | -37.78593 | -57.87013 | 3758 ft | 242 kts | 95° |
| 2026-04-21 23:56 | -37.79229 | -57.85025 | 3517 ft | 245 kts | 116° |
| 2026-04-21 23:56 | -37.80145 | -57.83221 | 3321 ft | 239 kts | 120° |
| 2026-04-21 23:56 | -37.81045 | -57.81528 | 3129 ft | 224 kts | 119° |
| 2026-04-21 23:56 | -37.81878 | -57.79939 | 2983 ft | 209 kts | 118° |
| 2026-04-21 23:57 | -37.82645 | -57.78461 | 2962 ft | 196 kts | 117° |
| 2026-04-21 23:57 | -37.83384 | -57.77023 | 2983 ft | 194 kts | 117° |
| 2026-04-21 23:57 | -37.84112 | -57.75603 | 2992 ft | 190 kts | 117° |
| 2026-04-21 23:57 | -37.84823 | -57.74216 | 2982 ft | 187 kts | 117° |
| 2026-04-21 23:58 | -37.85555 | -57.72853 | 2787 ft | 192 kts | 118° |
| 2026-04-21 23:58 | -37.86286 | -57.71445 | 2536 ft | 191 kts | 117° |
| 2026-04-21 23:58 | -37.86991 | -57.70056 | 2286 ft | 183 kts | 116° |
| 2026-04-21 23:58 | -37.87653 | -57.68745 | 2056 ft | 171 kts | 115° |
| 2026-04-21 23:59 | -37.88260 | -57.67544 | 1854 ft | 154 kts | 114° |
| 2026-04-21 23:59 | -37.88809 | -57.66455 | 1637 ft | 141 kts | 114° |
| 2026-04-21 23:59 | -37.89320 | -57.65438 | 1454 ft | 135 kts | 115° |
| 2026-04-21 23:59 | -37.89831 | -57.64425 | 1286 ft | 137 kts | 116° |
| 2026-04-22 00:00 | -37.90348 | -57.63399 | 1101 ft | 140 kts | 117° |
| 2026-04-22 00:00 | -37.90877 | -57.62356 | 899 ft | 140 kts | 117° |
| 2026-04-22 00:00 | -37.91393 | -57.61310 | 669 ft | 140 kts | 119° |
| 2026-04-22 00:00 | -37.91918 | -57.60294 | 495 ft | 137 kts | 119° |
| 2026-04-22 00:01 | -37.92421 | -57.59287 | 291 ft | 132 kts | 118° |
| 2026-04-22 00:01 | -37.92920 | -57.58324 | 87 ft | 129 kts | 118° |
| 2026-04-22 00:01 | -37.93359 | -57.57447 | 49 ft | 96 kts | 123° |
| 2026-04-22 00:01 | -37.93615 | -57.56942 | 50 ft | 42 kts | 123° |
| 2026-04-22 00:02 | -37.93757 | -57.56661 | 54 ft | 35 kts | 123° |
| 2026-04-22 00:02 | -37.93879 | -57.56422 | 50 ft | 30 kts | 122° |
| 2026-04-22 00:02 | -37.93959 | -57.56332 | 52 ft | 8 kts | 181° |
| 2026-04-22 00:02 | -37.93999 | -57.56375 | 50 ft | 8 kts | 242° |
| 2026-04-22 00:03 | -37.94023 | -57.56434 | 52 ft | 7 kts | 243° |
| 2026-04-22 00:03 | -37.94032 | -57.56496 | 52 ft | 7 kts | 285° |
| 2026-04-22 00:03 | -37.94007 | -57.56562 | 53 ft | 9 kts | 299° |
| 2026-04-22 00:03 | -37.93973 | -57.56637 | 53 ft | 10 kts | 299° |
| 2026-04-22 00:04 | -37.93941 | -57.56712 | 50 ft | 10 kts | 299° |
| 2026-04-22 00:04 | -37.93908 | -57.56785 | 51 ft | 9 kts | 299° |
| 2026-04-22 00:04 | -37.93877 | -57.56855 | 51 ft | 9 kts | 299° |
| 2026-04-22 00:04 | -37.93847 | -57.56923 | 53 ft | 9 kts | 299° |